KDHT

Details ICAO KDHT (DHT)
Name DALHART MUNI
Region United States
Timezone America/Chicago (UTC-6.0)
Plans Departing 2
Arriving 6
Stats Elevation 3,991 ft / 1,216 m (AMSL)
Location 36.022601° -102.547334°
Runways 2
Magnetic Variation 6.658° E
Sunrise 2017-12-17 13:56:21 UTC / 2017-12-17 07:56:21 Local
Sunset 2017-12-17 23:39:16 UTC / 2017-12-17 17:39:16 Local
Advertisement - Login to hide

Runways

ID Width Length Bearing (true) Bearing (mag) Surface Threshold Offset Overrun Length
03 75 ft / 23 m 5,669 ft / 1,728 m 44.72° 38.06° Asphalt 0 ft / 0 m 0 ft / 0 m
17 75 ft / 23 m 6,414 ft / 1,955 m 179.89° 173.23° Asphalt 0 ft / 0 m 0 ft / 0 m
21 75 ft / 23 m 5,669 ft / 1,728 m 224.73° 218.07° Asphalt 224 ft / 68 m 0 ft / 0 m
35 75 ft / 23 m 6,414 ft / 1,955 m 359.89° 353.23° Asphalt 0 ft / 0 m 0 ft / 0 m

Map

Weather


0- 5 10 15 20 25 30 35+ Temperature / ° C

Clouds and Precipitation
Forecast for 2017-12-17 18:00 UTC. Updated an hour ago

Ground ~20,000 ft ~40,000 ft Winds

METAR

KDHT 171753Z AUTO 36014G21KT 10SM CLR 06/M03 A3003 RMK AO2 SLP174 T00611028 10061 21011 50013

TAF

TAF KDHT 171720Z 1718/1818 36013G23KT P6SM FEW150 FM180000 10007KT P6SM FEW150 FM180900 21011KT P6SM SCT100

Frequencies

Recorded 134.07 MHz ASOS
Unicom 122.95 MHz CTAF/UNICOM
Warning: Do not use this data for real-world aviation or navigation. No guarantee of current accuracy is given.